Time;durP1;ratioP1;P1;durP2;ratioP2;P2;SDS_P1;SDS_P2;PMS_P1;PMS_P2;Temp;Humidity;BMP_temperature;BMP_pressure;BME280_temperature;BME280_humidity;BME280_pressure;Samples;Min_cycle;Max_cycle;Signal;HPM_P1;HPM_P2
2022/12/04 00:00:10;;;;;;;;;;;-0.40;99.90;;;;;;4958170;28;20298;-71
2022/12/04 00:02:35;;;;;;;;;;;-0.30;99.90;;;;;;4954933;28;19922;-70
2022/12/04 00:05:01;;;;;;;;;;;-0.40;99.90;;;;;;4956014;28;19977;-70
2022/12/04 00:07:27;;;;;;;;;;;-0.30;99.90;;;;;;4948665;28;20414;-70
2022/12/04 00:09:52;;;;;;;;;;;-0.20;99.90;;;;;;4958854;28;19961;-70
2022/12/04 00:12:18;;;;;;;;;;;-0.30;99.90;;;;;;4955976;28;19926;-70
2022/12/04 00:14:44;;;;;;;;;;;-0.20;99.90;;;;;;4948189;28;19981;-70
2022/12/04 00:17:09;;;;;;;;;;;-0.20;99.90;;;;;;4970939;28;20353;-70
2022/12/04 00:19:35;;;;;;;;;;;-0.20;99.90;;;;;;4952845;28;19933;-70
2022/12/04 00:22:00;;;;;;;;;;;-0.20;99.90;;;;;;4960900;28;19926;-70
2022/12/04 00:24:26;;;;;;;;;;;-0.20;99.90;;;;;;4945874;28;20415;-70
2022/12/04 00:26:51;;;;;;;;;;;-0.10;99.90;;;;;;4952486;28;19972;-70
2022/12/04 00:29:17;;;;;;;;;;;-0.10;99.90;;;;;;4947418;28;19961;-70
2022/12/04 00:31:43;;;;;;;;;;;0.00;99.90;;;;;;4943284;28;19927;-70
2022/12/04 00:34:09;;;;;;;;;;;0.00;99.90;;;;;;4961265;28;19933;-70
2022/12/04 00:36:34;;;;;;;;;;;0.00;99.90;;;;;;4946597;28;19973;-70
2022/12/04 00:39:00;;;;;;;;;;;0.00;99.90;;;;;;4938789;28;19934;-70
2022/12/04 00:41:27;;;;;;;;;;;0.00;99.90;;;;;;4932236;28;19922;-70
2022/12/04 00:43:53;;;;;;;;;;;0.00;99.90;;;;;;4957174;28;19922;-69
2022/12/04 00:46:18;;;;;;;;;;;0.00;99.90;;;;;;4954244;28;19986;-70
2022/12/04 00:48:44;;;;;;;;;;;0.10;99.90;;;;;;4958940;28;19923;-70
2022/12/04 00:51:11;;;;;;;;;;;0.10;99.90;;;;;;4940358;28;19937;-70
2022/12/04 00:53:38;;;;;;;;;;;0.10;99.90;;;;;;4956907;28;20285;-70
2022/12/04 00:56:08;;;;;;;;;;;0.10;99.90;;;;;;4962883;28;20310;-70
2022/12/04 00:58:34;;;;;;;;;;;0.10;99.90;;;;;;4948027;28;20639;-70
2022/12/04 01:01:04;;;;;;;;;;;0.10;99.90;;;;;;4961326;28;19922;-70
2022/12/04 01:03:29;;;;;;;;;;;0.10;99.90;;;;;;4944679;29;19930;-70
2022/12/04 01:05:55;;;;;;;;;;;0.10;99.90;;;;;;4933140;28;19926;-70
2022/12/04 01:08:21;;;;;;;;;;;0.10;99.90;;;;;;4947725;28;20017;-70
2022/12/04 01:10:46;;;;;;;;;;;0.10;99.90;;;;;;4929342;28;19922;-70
2022/12/04 01:13:12;;;;;;;;;;;0.10;99.90;;;;;;4955706;28;19933;-70
2022/12/04 01:15:42;;;;;;;;;;;0.10;99.90;;;;;;4940419;28;19977;-70
2022/12/04 01:18:08;;;;;;;;;;;0.00;99.90;;;;;;4958665;28;20351;-70
2022/12/04 01:20:34;;;;;;;;;;;0.10;99.90;;;;;;4963677;28;19926;-70
2022/12/04 01:22:59;;;;;;;;;;;0.10;99.90;;;;;;4941664;28;19930;-70
2022/12/04 01:25:25;;;;;;;;;;;0.10;99.90;;;;;;4957702;28;19925;-70
2022/12/04 01:27:50;;;;;;;;;;;0.00;99.90;;;;;;4949100;28;20218;-70
2022/12/04 01:30:16;;;;;;;;;;;0.00;99.90;;;;;;4949259;28;20338;-70
2022/12/04 01:32:41;;;;;;;;;;;0.10;99.90;;;;;;4957086;28;19934;-70
2022/12/04 01:35:07;;;;;;;;;;;0.10;99.90;;;;;;4942949;28;19927;-70
2022/12/04 01:37:33;;;;;;;;;;;0.10;99.90;;;;;;4925651;28;19923;-70
2022/12/04 01:39:59;;;;;;;;;;;0.10;99.90;;;;;;4951113;28;19976;-70
2022/12/04 01:42:25;;;;;;;;;;;0.00;99.90;;;;;;4965405;28;19933;-70
2022/12/04 01:45:09;;;;;;;;;;;0.00;99.90;;;;;;4957974;28;19993;-70
2022/12/04 01:47:35;;;;;;;;;;;0.00;99.90;;;;;;4961361;28;20295;-70
2022/12/04 01:50:00;;;;;;;;;;;0.10;99.90;;;;;;4963056;28;19926;-70
2022/12/04 01:52:26;;;;;;;;;;;0.10;99.90;;;;;;4954329;28;19940;-70
2022/12/04 01:54:58;;;;;;;;;;;0.10;99.90;;;;;;4971255;28;19988;-70
2022/12/04 01:57:26;;;;;;;;;;;0.10;99.90;;;;;;4963606;28;19922;-70
2022/12/04 01:59:58;;;;;;;;;;;0.10;99.90;;;;;;4963545;28;20001;-69
2022/12/04 02:02:34;;;;;;;;;;;0.00;99.90;;;;;;4949939;28;19928;-70
2022/12/04 02:05:00;;;;;;;;;;;0.00;99.90;;;;;;4937397;28;19932;-70
2022/12/04 02:07:26;;;;;;;;;;;0.00;99.90;;;;;;4957790;28;19997;-70
2022/12/04 02:09:54;;;;;;;;;;;0.00;99.90;;;;;;4955651;28;20075;-70
2022/12/04 02:12:23;;;;;;;;;;;0.10;99.90;;;;;;4951341;28;20359;-70
2022/12/04 02:15:07;;;;;;;;;;;0.10;99.90;;;;;;4952916;28;19923;-70
2022/12/04 02:17:36;;;;;;;;;;;0.10;99.90;;;;;;4951748;28;20147;-70
2022/12/04 02:20:04;;;;;;;;;;;0.10;99.90;;;;;;4945653;28;19926;-70
2022/12/04 02:22:49;;;;;;;;;;;0.10;99.90;;;;;;4962974;28;20338;-70
2022/12/04 02:25:33;;;;;;;;;;;0.10;99.90;;;;;;4938968;28;19930;-70
2022/12/04 02:27:59;;;;;;;;;;;0.00;99.90;;;;;;4942066;28;19926;-70
2022/12/04 02:30:25;;;;;;;;;;;0.00;99.90;;;;;;4947733;28;19926;-70
2022/12/04 02:33:04;;;;;;;;;;;0.00;99.90;;;;;;4938978;28;20005;-70
2022/12/04 02:35:29;;;;;;;;;;;-0.10;99.90;;;;;;4948575;28;19933;-70
2022/12/04 02:38:09;;;;;;;;;;;0.00;99.90;;;;;;4955235;28;20350;-70
2022/12/04 02:40:44;;;;;;;;;;;0.00;99.90;;;;;;4958928;28;19993;-70
2022/12/04 02:43:23;;;;;;;;;;;0.00;99.90;;;;;;4945889;28;19922;-70
2022/12/04 02:46:00;;;;;;;;;;;0.00;99.90;;;;;;4936182;28;20066;-70
2022/12/04 02:48:27;;;;;;;;;;;0.00;99.90;;;;;;4955198;28;20314;-70
2022/12/04 02:50:53;;;;;;;;;;;-0.10;99.90;;;;;;4958433;28;20561;-70
2022/12/04 02:53:22;;;;;;;;;;;-0.10;99.90;;;;;;4957110;28;20307;-70
2022/12/04 02:55:51;;;;;;;;;;;-0.10;99.90;;;;;;4959387;28;19934;-70
2022/12/04 02:58:20;;;;;;;;;;;-0.10;99.90;;;;;;4963106;28;20410;-70
2022/12/04 03:00:46;;;;;;;;;;;-0.20;99.90;;;;;;4957328;28;19941;-70
2022/12/04 03:03:15;;;;;;;;;;;-0.20;99.90;;;;;;4962650;28;19965;-70
2022/12/04 03:05:52;;;;;;;;;;;-0.20;99.90;;;;;;4951110;28;19996;-70
2022/12/04 03:08:21;;;;;;;;;;;-0.20;99.90;;;;;;4937464;28;19927;-70
2022/12/04 03:10:49;;;;;;;;;;;-0.20;99.90;;;;;;4954174;28;19981;-70
2022/12/04 03:13:18;;;;;;;;;;;-0.20;99.90;;;;;;4957449;28;20210;-70
2022/12/04 03:15:46;;;;;;;;;;;-0.30;99.90;;;;;;4958463;28;20534;-70
2022/12/04 03:18:20;;;;;;;;;;;-0.30;99.90;;;;;;4947129;28;19985;-70
2022/12/04 03:20:47;;;;;;;;;;;-0.30;99.90;;;;;;4942161;28;20006;-70
2022/12/04 03:23:15;;;;;;;;;;;-0.30;99.90;;;;;;4958270;28;19922;-70
2022/12/04 03:25:45;;;;;;;;;;;-0.30;99.90;;;;;;4950137;28;19937;-70
2022/12/04 03:28:17;;;;;;;;;;;-0.30;99.90;;;;;;4954727;28;20006;-70
2022/12/04 03:30:46;;;;;;;;;;;-0.30;99.90;;;;;;4942592;28;20162;-70
2022/12/04 03:33:16;;;;;;;;;;;-0.30;99.90;;;;;;4945833;28;19931;-70
2022/12/04 03:35:45;;;;;;;;;;;-0.30;99.90;;;;;;4975059;28;19930;-70
2022/12/04 03:38:16;;;;;;;;;;;-0.30;99.90;;;;;;4961517;28;19930;-70
2022/12/04 03:40:45;;;;;;;;;;;-0.40;99.90;;;;;;4963909;28;20331;-70
2022/12/04 03:43:13;;;;;;;;;;;-0.40;99.90;;;;;;4943471;28;19969;-70
2022/12/04 03:45:45;;;;;;;;;;;-0.40;99.90;;;;;;4945835;28;19930;-70
2022/12/04 03:48:14;;;;;;;;;;;-0.40;99.90;;;;;;4964216;28;19980;-70
2022/12/04 03:50:49;;;;;;;;;;;-0.30;99.90;;;;;;4961714;28;19938;-70
2022/12/04 03:53:32;;;;;;;;;;;-0.30;99.90;;;;;;4952769;28;19930;-70
2022/12/04 03:56:03;;;;;;;;;;;-0.30;99.90;;;;;;4964901;28;19980;-70
2022/12/04 03:58:31;;;;;;;;;;;-0.40;99.90;;;;;;4970710;28;20265;-70
2022/12/04 04:01:00;;;;;;;;;;;-0.30;99.90;;;;;;4966754;28;20280;-70
2022/12/04 04:03:30;;;;;;;;;;;-0.30;99.90;;;;;;4966117;28;19933;-70
2022/12/04 04:05:59;;;;;;;;;;;-0.30;99.90;;;;;;4936013;28;19931;-70
2022/12/04 04:08:26;;;;;;;;;;;-0.30;99.90;;;;;;4957001;28;20460;-70
2022/12/04 04:10:54;;;;;;;;;;;-0.30;99.90;;;;;;4951002;28;19926;-70
2022/12/04 04:24:27;;;;;;;;;;;-0.30;99.90;;;;;;4960045;28;19933;-70
2022/12/04 04:26:53;;;;;;;;;;;-0.30;99.90;;;;;;4974085;28;20033;-70
2022/12/04 04:29:18;;;;;;;;;;;-0.30;99.90;;;;;;4953665;28;20017;-70
2022/12/04 04:31:55;;;;;;;;;;;-0.30;99.90;;;;;;4949434;28;20006;-70
2022/12/04 04:34:23;;;;;;;;;;;-0.30;99.90;;;;;;4957476;28;20013;-70
2022/12/04 04:37:01;;;;;;;;;;;-0.30;99.90;;;;;;4948734;28;20438;-70
2022/12/04 04:39:34;;;;;;;;;;;-0.30;99.90;;;;;;4941042;28;20033;-70
2022/12/04 04:42:11;;;;;;;;;;;-0.40;99.90;;;;;;4963943;28;20341;-70
2022/12/04 04:44:37;;;;;;;;;;;-0.40;99.90;;;;;;4941151;28;20013;-70
2022/12/04 04:47:05;;;;;;;;;;;-0.40;99.90;;;;;;4958321;28;20061;-70
2022/12/04 04:49:32;;;;;;;;;;;-0.40;99.90;;;;;;4951327;28;19929;-70
2022/12/04 04:51:58;;;;;;;;;;;-0.40;99.90;;;;;;4956593;28;20043;-70
2022/12/04 04:54:24;;;;;;;;;;;-0.40;99.90;;;;;;4961745;28;19986;-70
2022/12/04 04:56:50;;;;;;;;;;;-0.40;99.90;;;;;;4970099;28;19953;-70
2022/12/04 04:59:15;;;;;;;;;;;-0.40;99.90;;;;;;4942673;28;19926;-70
2022/12/04 05:01:43;;;;;;;;;;;-0.40;99.90;;;;;;4947632;28;19930;-70
2022/12/04 05:04:09;;;;;;;;;;;-0.40;99.90;;;;;;4947092;28;19997;-70
2022/12/04 05:06:35;;;;;;;;;;;-0.40;99.90;;;;;;4941440;28;20422;-70
2022/12/04 05:09:00;;;;;;;;;;;-0.40;99.90;;;;;;4963362;28;19922;-70
2022/12/04 05:11:26;;;;;;;;;;;-0.40;99.90;;;;;;4953081;28;20008;-70
2022/12/04 05:13:51;;;;;;;;;;;-0.40;99.90;;;;;;4951390;28;20318;-70
2022/12/04 05:16:17;;;;;;;;;;;-0.50;99.90;;;;;;4959466;28;20018;-70
2022/12/04 05:21:27;;;;;;;;;;;-0.50;99.90;;;;;;4953390;28;20310;-70
2022/12/04 05:23:52;;;;;;;;;;;-0.50;99.90;;;;;;4924701;28;19922;-70
2022/12/04 05:26:18;;;;;;;;;;;-0.50;99.90;;;;;;4948677;28;20391;-70
2022/12/04 05:28:44;;;;;;;;;;;-0.40;99.90;;;;;;4933534;28;19922;-70
2022/12/04 05:31:09;;;;;;;;;;;-0.50;99.90;;;;;;4963144;28;19930;-70
2022/12/04 05:33:35;;;;;;;;;;;-0.50;99.90;;;;;;4956297;28;19973;-70
2022/12/04 05:36:02;;;;;;;;;;;-0.50;99.90;;;;;;4926849;28;20274;-70
2022/12/04 05:38:27;;;;;;;;;;;-0.40;99.90;;;;;;4955678;28;19933;-70
2022/12/04 05:40:53;;;;;;;;;;;-0.40;99.90;;;;;;4940163;28;19922;-70
2022/12/04 05:43:18;;;;;;;;;;;-0.40;99.90;;;;;;4943961;28;19926;-70
2022/12/04 05:45:44;;;;;;;;;;;-0.40;99.90;;;;;;4942917;28;19942;-70
2022/12/04 05:48:09;;;;;;;;;;;-0.40;99.90;;;;;;4953130;28;20329;-70
2022/12/04 05:50:37;;;;;;;;;;;-0.50;99.90;;;;;;4944469;28;19926;-70
2022/12/04 05:53:02;;;;;;;;;;;-0.40;99.90;;;;;;4973168;28;19922;-70
2022/12/04 05:55:28;;;;;;;;;;;-0.50;99.90;;;;;;4970247;28;19933;-70
2022/12/04 05:57:53;;;;;;;;;;;-0.40;99.90;;;;;;4962608;28;20024;-70
2022/12/04 06:00:19;;;;;;;;;;;-0.40;99.90;;;;;;4947579;28;20398;-70
2022/12/04 06:02:44;;;;;;;;;;;-0.40;99.90;;;;;;4933830;28;19922;-70
2022/12/04 06:05:10;;;;;;;;;;;-0.40;99.90;;;;;;4935317;28;20014;-70
2022/12/04 06:07:36;;;;;;;;;;;-0.40;99.90;;;;;;4944145;29;19922;-70
2022/12/04 06:10:01;;;;;;;;;;;-0.50;99.90;;;;;;4948746;28;19937;-70
2022/12/04 06:12:28;;;;;;;;;;;-0.50;99.90;;;;;;4937354;28;20302;-70
2022/12/04 06:14:53;;;;;;;;;;;-0.40;99.90;;;;;;4942314;28;19930;-70
2022/12/04 06:17:19;;;;;;;;;;;-0.40;99.90;;;;;;4949777;28;19927;-70
2022/12/04 06:19:45;;;;;;;;;;;-0.50;99.90;;;;;;4949902;28;20371;-70
2022/12/04 06:22:10;;;;;;;;;;;-0.50;99.90;;;;;;4953004;28;20481;-70
2022/12/04 06:24:36;;;;;;;;;;;-0.50;99.90;;;;;;4931451;28;20034;-70
2022/12/04 06:27:01;;;;;;;;;;;-0.50;99.90;;;;;;4946664;28;19930;-70
2022/12/04 06:29:27;;;;;;;;;;;-0.50;99.90;;;;;;4937437;28;20411;-70
2022/12/04 06:31:52;;;;;;;;;;;-0.50;99.90;;;;;;4959467;28;19923;-70
2022/12/04 06:34:18;;;;;;;;;;;-0.50;99.90;;;;;;4959167;28;19953;-72
2022/12/04 06:36:44;;;;;;;;;;;-0.50;99.90;;;;;;4930657;28;20398;-72
2022/12/04 06:39:09;;;;;;;;;;;-0.40;99.90;;;;;;4957502;28;19922;-72
2022/12/04 06:41:35;;;;;;;;;;;-0.50;99.90;;;;;;4939766;28;20351;-72
2022/12/04 06:44:00;;;;;;;;;;;-0.50;99.90;;;;;;4945909;28;19927;-72
2022/12/04 06:46:27;;;;;;;;;;;-0.50;99.90;;;;;;4951687;28;19926;-72
2022/12/04 06:48:54;;;;;;;;;;;-0.50;99.90;;;;;;4958487;28;19922;-72
2022/12/04 06:51:24;;;;;;;;;;;-0.50;99.90;;;;;;4949623;28;19937;-72
2022/12/04 06:53:50;;;;;;;;;;;-0.50;99.90;;;;;;4951908;28;20013;-72
2022/12/04 06:56:17;;;;;;;;;;;-0.50;99.90;;;;;;4965539;28;19926;-72
2022/12/04 06:58:43;;;;;;;;;;;-0.60;99.90;;;;;;4963258;28;19926;-72
2022/12/04 07:01:11;;;;;;;;;;;-0.50;99.90;;;;;;4958391;28;19928;-70
2022/12/04 07:03:36;;;;;;;;;;;-0.50;99.90;;;;;;4965052;28;19922;-70
2022/12/04 07:06:19;;;;;;;;;;;-0.50;99.90;;;;;;4959668;28;19953;-70
2022/12/04 07:08:46;;;;;;;;;;;-0.50;99.90;;;;;;4949790;28;20021;-70
2022/12/04 07:11:11;;;;;;;;;;;-0.50;99.90;;;;;;4958052;28;20100;-70
2022/12/04 07:13:37;;;;;;;;;;;-0.50;99.90;;;;;;4950889;28;20350;-70
2022/12/04 07:16:04;;;;;;;;;;;-0.50;99.90;;;;;;4953057;28;19926;-70
2022/12/04 07:18:30;;;;;;;;;;;-0.50;99.90;;;;;;4933900;28;19937;-70
2022/12/04 07:20:56;;;;;;;;;;;-0.50;99.90;;;;;;4929263;28;20403;-70
2022/12/04 07:23:21;;;;;;;;;;;-0.50;99.90;;;;;;4959350;28;20013;-70
2022/12/04 07:25:47;;;;;;;;;;;-0.40;99.90;;;;;;4926154;29;20017;-70
2022/12/04 07:28:13;;;;;;;;;;;-0.40;99.90;;;;;;4941743;28;19926;-70
2022/12/04 07:30:38;;;;;;;;;;;-0.40;99.90;;;;;;4955991;28;19922;-70
2022/12/04 07:33:04;;;;;;;;;;;-0.40;99.90;;;;;;4958979;28;20001;-70
2022/12/04 07:35:29;;;;;;;;;;;-0.40;99.90;;;;;;4972350;28;19929;-70
2022/12/04 07:37:55;;;;;;;;;;;-0.40;99.90;;;;;;4941388;28;19972;-70
2022/12/04 07:40:21;;;;;;;;;;;-0.30;99.90;;;;;;4944558;28;19930;-69
2022/12/04 07:42:46;;;;;;;;;;;-0.30;99.90;;;;;;4959195;28;19970;-70
2022/12/04 07:45:12;;;;;;;;;;;-0.30;99.90;;;;;;4947939;28;19930;-70
2022/12/04 07:47:37;;;;;;;;;;;-0.30;99.90;;;;;;4958353;28;19934;-70
2022/12/04 07:50:04;;;;;;;;;;;-0.30;99.90;;;;;;4965002;28;19973;-70
2022/12/04 07:52:29;;;;;;;;;;;-0.30;99.90;;;;;;4961992;28;20025;-70
2022/12/04 07:54:55;;;;;;;;;;;-0.30;99.90;;;;;;4921716;29;20009;-70
2022/12/04 07:57:20;;;;;;;;;;;-0.30;99.90;;;;;;4969331;28;19974;-70
2022/12/04 07:59:46;;;;;;;;;;;-0.30;99.90;;;;;;4971894;28;19925;-71
2022/12/04 08:02:12;;;;;;;;;;;-0.30;99.90;;;;;;4948203;28;19927;-71
2022/12/04 08:04:40;;;;;;;;;;;-0.30;99.90;;;;;;4957661;28;19930;-71
2022/12/04 08:07:06;;;;;;;;;;;-0.20;99.90;;;;;;4948983;28;20220;-71
2022/12/04 08:09:31;;;;;;;;;;;-0.30;99.90;;;;;;4962980;28;20689;-71
2022/12/04 08:11:57;;;;;;;;;;;-0.30;99.90;;;;;;4940518;28;19933;-71
2022/12/04 08:14:23;;;;;;;;;;;-0.30;99.90;;;;;;4934427;29;19926;-71
2022/12/04 08:16:48;;;;;;;;;;;-0.30;99.90;;;;;;4949799;28;19922;-71
2022/12/04 08:19:14;;;;;;;;;;;-0.20;99.90;;;;;;4932198;29;19926;-71
2022/12/04 08:21:39;;;;;;;;;;;-0.20;99.90;;;;;;4938750;28;19922;-71
2022/12/04 08:24:05;;;;;;;;;;;-0.20;99.90;;;;;;4945616;28;20376;-71
2022/12/04 08:26:32;;;;;;;;;;;-0.20;99.90;;;;;;4951320;28;20029;-71
2022/12/04 08:29:00;;;;;;;;;;;-0.10;99.90;;;;;;4944079;28;19930;-70
2022/12/04 08:31:27;;;;;;;;;;;-0.10;99.90;;;;;;4950357;28;19922;-71
2022/12/04 08:33:54;;;;;;;;;;;-0.20;99.90;;;;;;4949473;28;19988;-71
2022/12/04 08:36:20;;;;;;;;;;;-0.10;99.90;;;;;;4961916;28;19922;-71
2022/12/04 08:38:46;;;;;;;;;;;-0.10;99.90;;;;;;4962913;28;20446;-70
2022/12/04 08:41:13;;;;;;;;;;;-0.10;99.90;;;;;;4966612;28;20016;-71
2022/12/04 08:43:39;;;;;;;;;;;-0.10;99.90;;;;;;4952344;28;19922;-71
2022/12/04 08:46:07;;;;;;;;;;;-0.10;99.90;;;;;;4962492;28;20009;-71
2022/12/04 08:48:32;;;;;;;;;;;-0.10;99.90;;;;;;4962747;28;19981;-71
2022/12/04 08:50:59;;;;;;;;;;;-0.10;99.90;;;;;;4955596;28;19934;-71
2022/12/04 08:53:24;;;;;;;;;;;0.00;99.90;;;;;;4962087;28;19958;-71
2022/12/04 08:55:50;;;;;;;;;;;0.00;99.90;;;;;;4973272;28;19966;-71
2022/12/04 08:58:17;;;;;;;;;;;0.00;99.90;;;;;;4949719;28;19957;-70
2022/12/04 09:00:43;;;;;;;;;;;0.00;99.90;;;;;;4972144;28;19977;-70
2022/12/04 09:03:12;;;;;;;;;;;0.00;99.90;;;;;;4974813;28;19961;-71
2022/12/04 09:05:38;;;;;;;;;;;0.00;99.90;;;;;;4958144;28;19976;-71
2022/12/04 09:08:04;;;;;;;;;;;0.00;99.90;;;;;;4964263;28;19965;-71
2022/12/04 09:10:29;;;;;;;;;;;0.10;99.90;;;;;;4962227;28;20413;-70
2022/12/04 09:12:55;;;;;;;;;;;0.00;99.90;;;;;;4953700;28;19987;-70
2022/12/04 09:15:21;;;;;;;;;;;0.10;99.90;;;;;;4964793;28;20014;-71
2022/12/04 09:17:46;;;;;;;;;;;0.10;99.90;;;;;;4944132;28;19927;-71
2022/12/04 09:20:13;;;;;;;;;;;0.10;99.90;;;;;;4962489;28;20767;-71
2022/12/04 09:22:39;;;;;;;;;;;0.10;99.90;;;;;;4948907;28;19926;-71
2022/12/04 09:25:05;;;;;;;;;;;0.10;99.90;;;;;;4948208;28;19934;-71
2022/12/04 09:27:34;;;;;;;;;;;0.10;99.90;;;;;;4932908;28;19922;-71
2022/12/04 09:30:00;;;;;;;;;;;0.10;99.90;;;;;;4955496;28;19945;-71
2022/12/04 09:32:25;;;;;;;;;;;0.20;99.90;;;;;;4938358;28;20374;-70
2022/12/04 09:34:51;;;;;;;;;;;0.20;99.90;;;;;;4950568;28;20681;-70
2022/12/04 09:37:17;;;;;;;;;;;0.20;99.90;;;;;;4938037;28;19926;-70
2022/12/04 09:39:43;;;;;;;;;;;0.20;99.90;;;;;;4937613;28;20005;-70
2022/12/04 09:42:15;;;;;;;;;;;0.20;99.90;;;;;;4957486;28;20371;-70
2022/12/04 09:44:58;;;;;;;;;;;0.20;99.90;;;;;;4942727;28;19992;-70
2022/12/04 09:47:30;;;;;;;;;;;0.20;99.90;;;;;;4961104;28;19973;-70
2022/12/04 09:49:57;;;;;;;;;;;0.30;99.90;;;;;;4952113;28;20550;-70
2022/12/04 09:52:38;;;;;;;;;;;0.30;99.90;;;;;;4936995;28;20465;-70
2022/12/04 09:55:09;;;;;;;;;;;0.40;99.90;;;;;;4959269;28;19953;-70
2022/12/04 09:57:41;;;;;;;;;;;0.40;99.90;;;;;;4966961;28;19938;-70
2022/12/04 10:00:10;;;;;;;;;;;0.40;99.90;;;;;;4952001;28;19957;-70
2022/12/04 10:02:37;;;;;;;;;;;0.40;99.90;;;;;;4948940;28;19928;-70
2022/12/04 10:05:03;;;;;;;;;;;0.50;99.90;;;;;;4961741;28;19926;-70
2022/12/04 10:07:37;;;;;;;;;;;0.50;99.90;;;;;;4937425;28;19926;-70
2022/12/04 10:10:11;;;;;;;;;;;0.50;99.90;;;;;;4970328;28;19929;-70
2022/12/04 10:12:43;;;;;;;;;;;0.60;99.90;;;;;;4933550;28;20289;-70
2022/12/04 10:15:12;;;;;;;;;;;0.60;99.90;;;;;;4943723;28;19932;-70
2022/12/04 10:17:52;;;;;;;;;;;0.60;99.90;;;;;;4965614;28;19945;-70
2022/12/04 10:20:18;;;;;;;;;;;0.70;99.90;;;;;;4965252;28;20447;-70
2022/12/04 10:22:55;;;;;;;;;;;0.70;99.90;;;;;;4958130;28;19957;-70
2022/12/04 10:25:22;;;;;;;;;;;0.70;99.90;;;;;;4958537;28;20029;-70
2022/12/04 10:27:50;;;;;;;;;;;0.80;99.90;;;;;;4939640;29;19939;-70
2022/12/04 10:30:20;;;;;;;;;;;0.80;99.90;;;;;;4950295;28;20339;-70
2022/12/04 10:32:47;;;;;;;;;;;0.80;99.90;;;;;;4957331;28;19926;-70
2022/12/04 10:35:29;;;;;;;;;;;0.80;99.90;;;;;;4959361;28;19926;-70
2022/12/04 10:37:56;;;;;;;;;;;0.90;99.90;;;;;;4956982;28;20302;-70
2022/12/04 10:40:27;;;;;;;;;;;0.80;99.90;;;;;;4954466;28;19939;-70
2022/12/04 10:42:52;;;;;;;;;;;0.90;99.90;;;;;;4953446;28;20009;-70
2022/12/04 10:45:19;;;;;;;;;;;0.90;99.90;;;;;;4954998;28;20017;-70
2022/12/04 10:47:47;;;;;;;;;;;0.90;99.90;;;;;;4962294;28;19930;-70
2022/12/04 10:50:17;;;;;;;;;;;1.00;99.90;;;;;;4931234;28;19934;-70
2022/12/04 10:52:42;;;;;;;;;;;1.00;99.90;;;;;;4954195;28;19985;-70
2022/12/04 10:55:08;;;;;;;;;;;1.10;99.90;;;;;;4955250;28;19926;-70
2022/12/04 10:57:38;;;;;;;;;;;1.20;99.90;;;;;;4961985;28;19976;-72
2022/12/04 11:00:25;;;;;;;;;;;1.20;99.90;;;;;;4957891;28;19973;-72
2022/12/04 11:02:52;;;;;;;;;;;1.20;99.90;;;;;;4933830;28;19930;-71
2022/12/04 11:05:38;;;;;;;;;;;1.20;99.90;;;;;;4936431;28;20017;-72
2022/12/04 11:08:05;;;;;;;;;;;1.30;99.90;;;;;;4957893;28;19926;-72
2022/12/04 11:10:34;;;;;;;;;;;1.30;99.90;;;;;;4933280;28;19926;-72
2022/12/04 11:13:04;;;;;;;;;;;1.40;99.90;;;;;;4968608;28;19926;-72
2022/12/04 11:15:33;;;;;;;;;;;1.40;99.90;;;;;;4962297;28;20330;-73
2022/12/04 11:18:28;;;;;;;;;;;1.40;99.90;;;;;;4941005;28;19926;-73
2022/12/04 11:20:59;;;;;;;;;;;1.50;99.90;;;;;;4962880;28;19922;-72
2022/12/04 11:23:28;;;;;;;;;;;1.50;99.90;;;;;;4946896;28;20033;-73
2022/12/04 11:25:55;;;;;;;;;;;1.60;99.90;;;;;;4958346;28;19930;-73
2022/12/04 11:28:22;;;;;;;;;;;1.60;99.90;;;;;;4960734;28;20008;-72
2022/12/04 11:30:53;;;;;;;;;;;1.70;99.90;;;;;;4946771;28;19943;-72
2022/12/04 11:33:26;;;;;;;;;;;1.70;99.90;;;;;;4960738;28;20064;-72
2022/12/04 11:35:58;;;;;;;;;;;1.80;99.90;;;;;;4944980;28;19938;-73
2022/12/04 11:38:24;;;;;;;;;;;1.80;99.90;;;;;;4957429;28;20409;-72
2022/12/04 11:40:55;;;;;;;;;;;1.90;99.90;;;;;;4961743;28;19926;-72
2022/12/04 11:43:22;;;;;;;;;;;1.90;99.90;;;;;;4950019;28;20434;-72
2022/12/04 11:45:57;;;;;;;;;;;2.00;99.90;;;;;;4959908;28;19938;-73
2022/12/04 11:48:24;;;;;;;;;;;2.00;99.90;;;;;;4945106;28;19929;-72
2022/12/04 11:50:56;;;;;;;;;;;2.00;99.90;;;;;;4963433;28;19958;-72
2022/12/04 11:53:34;;;;;;;;;;;2.00;99.90;;;;;;4945345;28;19930;-71
2022/12/04 11:56:18;;;;;;;;;;;2.00;99.90;;;;;;4959806;28;19930;-73
2022/12/04 11:59:03;;;;;;;;;;;2.00;99.90;;;;;;4959102;28;19926;-73
2022/12/04 12:01:28;;;;;;;;;;;1.90;99.90;;;;;;4963393;28;19980;-73
2022/12/04 12:04:18;;;;;;;;;;;1.90;99.90;;;;;;4947306;28;19977;-73
2022/12/04 12:07:02;;;;;;;;;;;2.00;99.90;;;;;;4971429;28;19934;-73
2022/12/04 12:09:39;;;;;;;;;;;1.90;99.90;;;;;;4969908;28;19949;-72
2022/12/04 12:12:08;;;;;;;;;;;1.90;99.90;;;;;;4962745;28;19926;-74
2022/12/04 12:14:40;;;;;;;;;;;1.90;99.90;;;;;;4963529;28;19922;-73
2022/12/04 12:17:08;;;;;;;;;;;1.90;99.90;;;;;;4958427;28;19929;-73
2022/12/04 12:19:41;;;;;;;;;;;1.90;99.90;;;;;;4973870;28;19922;-73
2022/12/04 12:22:16;;;;;;;;;;;1.90;99.90;;;;;;4944020;28;19969;-73
2022/12/04 12:24:47;;;;;;;;;;;1.90;99.90;;;;;;4972061;28;19926;-73
2022/12/04 12:27:37;;;;;;;;;;;1.90;99.90;;;;;;4949268;29;19930;-72
2022/12/04 12:30:18;;;;;;;;;;;1.90;99.90;;;;;;4952513;28;19922;-74
2022/12/04 12:32:54;;;;;;;;;;;1.90;99.90;;;;;;4960214;28;19933;-72
2022/12/04 12:35:29;;;;;;;;;;;1.80;99.90;;;;;;4964020;28;19934;-73
2022/12/04 12:38:15;;;;;;;;;;;1.80;99.90;;;;;;4958756;28;20445;-72
2022/12/04 12:40:49;;;;;;;;;;;1.80;99.90;;;;;;4971833;28;20496;-73
2022/12/04 12:43:19;;;;;;;;;;;1.80;99.90;;;;;;4953041;28;19938;-73
2022/12/04 12:45:51;;;;;;;;;;;1.70;99.90;;;;;;4972040;28;20457;-72
2022/12/04 12:48:34;;;;;;;;;;;1.70;99.90;;;;;;4974145;28;19929;-73
2022/12/04 12:51:12;;;;;;;;;;;1.70;99.90;;;;;;4972236;28;19929;-73
2022/12/04 12:53:39;;;;;;;;;;;1.70;99.90;;;;;;4957842;28;20034;-72
2022/12/04 12:56:05;;;;;;;;;;;1.70;99.90;;;;;;4977974;28;19979;-72
2022/12/04 12:58:35;;;;;;;;;;;1.70;99.90;;;;;;4978646;28;19922;-71
2022/12/04 13:01:04;;;;;;;;;;;1.80;99.90;;;;;;4972942;28;19922;-72
2022/12/04 13:03:42;;;;;;;;;;;1.80;99.90;;;;;;4972654;28;20092;-72
2022/12/04 13:06:11;;;;;;;;;;;1.80;99.90;;;;;;4959996;28;20803;-72
2022/12/04 13:08:45;;;;;;;;;;;1.80;99.90;;;;;;4967401;28;19987;-72
2022/12/04 13:11:19;;;;;;;;;;;1.80;99.90;;;;;;4956737;28;19933;-72
2022/12/04 13:13:47;;;;;;;;;;;1.80;99.90;;;;;;4970043;28;19949;-72
2022/12/04 13:16:15;;;;;;;;;;;1.90;99.90;;;;;;4966748;28;19930;-71
2022/12/04 13:18:49;;;;;;;;;;;1.90;99.90;;;;;;4971951;28;20013;-72
2022/12/04 13:21:36;;;;;;;;;;;1.90;99.90;;;;;;4950293;28;19929;-72
2022/12/04 13:24:20;;;;;;;;;;;1.90;99.90;;;;;;4962072;28;19964;-72
2022/12/04 13:27:03;;;;;;;;;;;1.90;99.90;;;;;;4965492;28;19961;-73
2022/12/04 13:29:36;;;;;;;;;;;2.00;99.90;;;;;;4947542;28;19931;-72
2022/12/04 13:32:17;;;;;;;;;;;2.00;99.90;;;;;;4962587;28;19965;-74
2022/12/04 13:34:51;;;;;;;;;;;2.00;99.90;;;;;;4959327;28;19941;-72
2022/12/04 13:37:25;;;;;;;;;;;2.00;99.90;;;;;;4961145;28;20440;-73
2022/12/04 13:39:51;;;;;;;;;;;2.00;99.90;;;;;;4962461;28;20290;-73
2022/12/04 13:42:24;;;;;;;;;;;2.00;99.90;;;;;;4962599;28;19926;-73
2022/12/04 13:44:54;;;;;;;;;;;2.10;99.90;;;;;;4958941;28;19961;-73
2022/12/04 13:47:31;;;;;;;;;;;2.00;99.90;;;;;;4962529;28;19931;-74
2022/12/04 13:50:20;;;;;;;;;;;2.10;99.90;;;;;;4941518;28;19927;-73
2022/12/04 13:52:48;;;;;;;;;;;2.10;99.90;;;;;;4950755;28;20361;-74
2022/12/04 13:55:24;;;;;;;;;;;2.10;99.90;;;;;;4955727;28;19927;-72
2022/12/04 13:57:58;;;;;;;;;;;2.10;99.90;;;;;;4957944;28;19978;-73
2022/12/04 14:00:26;;;;;;;;;;;2.10;99.90;;;;;;4942833;28;20393;-72
2022/12/04 14:02:53;;;;;;;;;;;2.10;99.90;;;;;;4971704;28;19926;-72
2022/12/04 14:05:25;;;;;;;;;;;2.00;99.90;;;;;;4960290;28;19930;-73
2022/12/04 14:07:58;;;;;;;;;;;2.00;99.90;;;;;;4962308;28;19973;-73
2022/12/04 14:10:29;;;;;;;;;;;2.00;99.90;;;;;;4963801;28;20001;-70
2022/12/04 14:13:14;;;;;;;;;;;2.10;99.90;;;;;;4967542;28;19930;-70
2022/12/04 14:15:40;;;;;;;;;;;2.00;99.90;;;;;;4970711;28;20077;-70
2022/12/04 14:18:12;;;;;;;;;;;2.00;99.90;;;;;;4958979;28;20020;-70
2022/12/04 14:20:39;;;;;;;;;;;2.00;99.90;;;;;;4948328;28;19927;-69
2022/12/04 14:23:21;;;;;;;;;;;2.00;99.90;;;;;;4957142;28;19930;-70
2022/12/04 14:25:47;;;;;;;;;;;2.00;99.90;;;;;;4953265;28;19937;-70
2022/12/04 14:28:13;;;;;;;;;;;2.10;99.90;;;;;;4945785;28;19930;-70
2022/12/04 14:30:39;;;;;;;;;;;2.00;99.90;;;;;;4949686;28;19973;-70
2022/12/04 14:33:07;;;;;;;;;;;2.00;99.90;;;;;;4953154;28;19922;-70
2022/12/04 14:35:35;;;;;;;;;;;2.00;99.90;;;;;;4949969;28;19934;-70
2022/12/04 14:38:02;;;;;;;;;;;2.00;99.90;;;;;;4951442;28;19927;-69
2022/12/04 14:40:45;;;;;;;;;;;2.10;99.90;;;;;;4953325;28;19926;-69
2022/12/04 14:43:21;;;;;;;;;;;2.00;99.90;;;;;;4954980;28;19938;-70
2022/12/04 14:45:55;;;;;;;;;;;2.00;99.90;;;;;;4954608;28;19953;-69
2022/12/04 14:48:40;;;;;;;;;;;2.10;99.90;;;;;;4959535;28;20355;-71